Time;durP1;ratioP1;P1;durP2;ratioP2;P2;SDS_P1;SDS_P2;PMS_P1;PMS_P2;Temp;Humidity;BMP_temperature;BMP_pressure;BME280_temperature;BME280_humidity;BME280_pressure;Samples;Min_cycle;Max_cycle;Signal;HPM_P1;HPM_P2
2021/11/02 00:00:25;;;;;;;40.38;23.95;;;9.10;99.90;;;;;;2088854;28;20098;-71
2021/11/02 00:01:28;;;;;;;39.50;24.27;;;9.10;99.90;;;;;;2089140;28;20091;-71
2021/11/02 00:02:28;;;;;;;42.35;25.00;;;9.10;99.90;;;;;;2089586;28;20048;-71
2021/11/02 00:03:29;;;;;;;38.40;24.52;;;9.10;99.90;;;;;;2088713;28;20060;-71
2021/11/02 00:04:30;;;;;;;38.28;23.63;;;9.10;99.90;;;;;;2089399;28;20039;-70
2021/11/02 00:05:31;;;;;;;39.20;24.35;;;9.10;99.90;;;;;;2089564;28;20074;-71
2021/11/02 00:06:33;;;;;;;39.75;25.05;;;9.10;99.90;;;;;;2089125;28;20032;-70
2021/11/02 00:07:34;;;;;;;38.63;24.65;;;9.10;99.90;;;;;;2089039;28;20037;-70
2021/11/02 00:08:35;;;;;;;38.50;24.42;;;9.10;99.90;;;;;;2089667;28;20060;-71
2021/11/02 00:09:39;;;;;;;39.17;24.25;;;9.10;99.90;;;;;;2089098;28;20025;-73
2021/11/02 00:10:41;;;;;;;40.78;24.52;;;9.10;99.90;;;;;;2089427;28;20025;-71
2021/11/02 00:11:42;;;;;;;38.35;23.85;;;9.10;99.90;;;;;;2088310;28;20025;-72
2021/11/02 00:12:42;;;;;;;39.35;24.88;;;9.10;99.90;;;;;;2088788;28;20040;-72
2021/11/02 00:13:47;;;;;;;38.90;23.60;;;9.10;99.90;;;;;;2089263;28;20028;-72
2021/11/02 00:14:48;;;;;;;36.25;22.77;;;9.10;99.90;;;;;;2088672;28;20348;-72
2021/11/02 00:15:51;;;;;;;34.88;22.50;;;9.10;99.90;;;;;;2080500;28;20052;-72
2021/11/02 00:16:57;;;;;;;35.90;23.10;;;9.10;99.90;;;;;;2080743;28;20576;-72
2021/11/02 00:18:03;;;;;;;37.95;24.38;;;9.10;99.90;;;;;;2088913;28;20025;-72
2021/11/02 00:19:05;;;;;;;36.47;23.23;;;9.10;99.90;;;;;;2089367;28;20500;-72
2021/11/02 00:20:11;;;;;;;37.38;23.50;;;9.10;99.90;;;;;;2088197;28;20502;-72
2021/11/02 00:21:12;;;;;;;38.90;24.30;;;9.10;99.90;;;;;;2088609;28;20041;-74
2021/11/02 00:22:17;;;;;;;40.63;24.67;;;9.10;99.90;;;;;;2089145;28;20036;-72
2021/11/02 00:23:17;;;;;;;36.58;23.35;;;9.10;99.90;;;;;;2088685;28;20053;-72
2021/11/02 00:24:39;;;;;;;39.38;25.20;;;9.00;99.90;;;;;;2088624;28;20036;-73
2021/11/02 00:25:39;;;;;;;43.35;26.98;;;9.00;99.90;;;;;;2089242;28;20099;-72
2021/11/02 00:26:41;;;;;;;44.83;26.40;;;9.00;99.90;;;;;;2089305;28;20029;-73
2021/11/02 00:27:41;;;;;;;47.03;27.83;;;9.00;99.90;;;;;;2089164;28;20021;-72
2021/11/02 00:28:42;;;;;;;45.78;27.65;;;9.00;99.90;;;;;;2088636;28;20047;-72
2021/11/02 00:29:43;;;;;;;44.13;27.60;;;9.00;99.90;;;;;;2079725;28;20500;-73
2021/11/02 00:30:43;;;;;;;40.83;25.88;;;9.00;99.90;;;;;;2088615;28;20025;-72
2021/11/02 00:31:44;;;;;;;42.13;26.05;;;8.90;99.90;;;;;;2088841;28;20694;-72
2021/11/02 00:32:47;;;;;;;39.28;24.92;;;8.90;99.90;;;;;;2089319;28;20020;-72
2021/11/02 00:33:48;;;;;;;38.13;24.30;;;9.00;99.90;;;;;;2088650;28;20029;-72
2021/11/02 00:34:49;;;;;;;38.13;23.35;;;9.00;99.90;;;;;;2088648;28;20044;-72
2021/11/02 00:35:50;;;;;;;37.92;23.83;;;8.90;99.90;;;;;;2089327;28;20033;-72
2021/11/02 00:36:52;;;;;;;41.92;25.98;;;9.00;99.90;;;;;;2089281;28;20397;-72
2021/11/02 00:37:54;;;;;;;38.20;24.70;;;8.90;99.90;;;;;;2089222;28;20025;-72
2021/11/02 00:38:54;;;;;;;39.33;25.17;;;8.90;99.90;;;;;;2089160;28;20354;-73
2021/11/02 00:39:55;;;;;;;40.42;24.42;;;8.90;99.90;;;;;;2088021;28;20028;-73
2021/11/02 00:40:56;;;;;;;36.10;23.40;;;9.00;99.90;;;;;;2088551;28;20104;-71
2021/11/02 00:41:56;;;;;;;37.33;23.83;;;9.00;99.90;;;;;;2079798;28;20025;-71
2021/11/02 00:43:00;;;;;;;36.90;23.75;;;8.90;99.90;;;;;;2080179;28;20159;-70
2021/11/02 00:44:01;;;;;;;41.00;25.75;;;8.90;99.90;;;;;;2088338;28;20037;-71
2021/11/02 00:45:04;;;;;;;41.42;26.02;;;8.90;99.90;;;;;;2080324;28;20053;-71
2021/11/02 00:46:05;;;;;;;39.33;25.25;;;8.90;99.90;;;;;;2080263;28;20136;-71
2021/11/02 00:47:05;;;;;;;40.40;24.48;;;8.90;99.90;;;;;;2080237;28;20033;-71
2021/11/02 00:48:11;;;;;;;37.85;23.88;;;8.90;99.90;;;;;;2088523;28;20029;-71
2021/11/02 00:49:17;;;;;;;37.70;24.73;;;8.90;99.90;;;;;;2087976;28;20122;-71
2021/11/02 00:50:18;;;;;;;39.63;24.88;;;8.90;99.90;;;;;;2088671;28;20764;-71
2021/11/02 00:51:19;;;;;;;38.63;25.45;;;8.90;99.90;;;;;;2088195;28;20064;-71
2021/11/02 00:52:20;;;;;;;37.78;24.67;;;8.90;99.90;;;;;;2072038;28;20022;-71
2021/11/02 00:53:22;;;;;;;39.33;25.25;;;8.90;99.90;;;;;;2080078;28;20029;-71
2021/11/02 00:54:22;;;;;;;38.78;24.50;;;8.90;99.90;;;;;;2088210;28;20036;-71
2021/11/02 00:55:23;;;;;;;42.10;26.77;;;8.90;99.90;;;;;;2089113;28;20040;-70
2021/11/02 00:56:24;;;;;;;43.60;27.55;;;8.90;99.90;;;;;;2089235;28;20037;-71
2021/11/02 00:57:24;;;;;;;41.67;27.00;;;8.90;99.90;;;;;;2080896;28;20073;-72
2021/11/02 00:58:26;;;;;;;40.60;25.85;;;8.90;99.90;;;;;;2089068;28;20743;-71
2021/11/02 00:59:27;;;;;;;41.40;25.67;;;8.90;99.90;;;;;;2080417;28;20040;-70
2021/11/02 01:00:28;;;;;;;40.75;26.13;;;8.90;99.90;;;;;;2081118;28;20428;-71
2021/11/02 01:01:29;;;;;;;41.22;26.08;;;8.90;99.90;;;;;;2088870;28;20038;-71
2021/11/02 01:02:29;;;;;;;39.22;25.90;;;8.90;99.90;;;;;;2080656;28;20556;-71
2021/11/02 01:03:31;;;;;;;37.58;24.05;;;8.90;99.90;;;;;;2088620;28;20060;-70
2021/11/02 01:04:32;;;;;;;37.58;24.73;;;8.90;99.90;;;;;;2088389;28;20037;-71
2021/11/02 01:05:33;;;;;;;35.83;23.98;;;8.90;99.90;;;;;;2080334;28;20021;-71
2021/11/02 01:06:37;;;;;;;38.25;24.40;;;8.90;99.90;;;;;;2088569;28;20052;-70
2021/11/02 01:07:39;;;;;;;34.72;24.00;;;8.90;99.90;;;;;;2088553;28;20099;-69
2021/11/02 01:08:39;;;;;;;37.92;24.23;;;8.90;99.90;;;;;;2089118;28;20040;-70
2021/11/02 01:09:40;;;;;;;36.90;23.17;;;8.90;99.90;;;;;;2088635;28;20036;-71
2021/11/02 01:10:46;;;;;;;35.67;23.17;;;8.90;99.90;;;;;;2088925;28;20033;-71
2021/11/02 01:11:47;;;;;;;33.42;22.75;;;8.90;99.90;;;;;;2079859;28;20036;-71
2021/11/02 01:12:50;;;;;;;32.20;20.80;;;8.90;99.90;;;;;;2079988;28;20140;-71
2021/11/02 01:13:52;;;;;;;29.75;20.33;;;8.90;99.90;;;;;;2088889;28;20404;-71
2021/11/02 01:14:52;;;;;;;32.92;21.35;;;8.90;99.90;;;;;;2088142;28;20826;-71
2021/11/02 01:15:53;;;;;;;30.52;20.60;;;8.90;99.90;;;;;;2079925;28;20072;-71
2021/11/02 01:16:54;;;;;;;29.75;19.58;;;8.90;99.90;;;;;;2080023;28;20104;-70
2021/11/02 01:17:58;;;;;;;28.77;19.58;;;8.90;99.90;;;;;;2081158;28;20021;-71
2021/11/02 01:18:59;;;;;;;28.95;18.45;;;8.90;99.90;;;;;;2080821;28;20727;-71
2021/11/02 01:19:59;;;;;;;29.48;18.77;;;8.90;99.90;;;;;;2080504;28;20163;-72
2021/11/02 01:21:02;;;;;;;28.73;18.67;;;8.90;99.90;;;;;;2080752;28;20416;-74
2021/11/02 01:22:03;;;;;;;29.13;19.13;;;8.90;99.90;;;;;;2088447;28;20037;-71
2021/11/02 01:23:04;;;;;;;26.23;17.52;;;8.90;99.90;;;;;;2087976;28;20751;-72
2021/11/02 01:24:05;;;;;;;25.65;16.70;;;8.90;99.90;;;;;;2088082;28;20033;-72
2021/11/02 01:25:07;;;;;;;24.33;16.55;;;8.90;99.90;;;;;;2088898;28;20017;-70
2021/11/02 01:26:09;;;;;;;25.67;16.95;;;8.90;99.90;;;;;;2088577;28;20025;-73
2021/11/02 01:27:09;;;;;;;24.85;16.65;;;8.90;99.90;;;;;;2088761;28;20024;-71
2021/11/02 01:28:10;;;;;;;24.80;15.82;;;8.90;99.90;;;;;;2088052;28;20052;-71
2021/11/02 01:29:16;;;;;;;25.38;15.98;;;8.90;99.90;;;;;;2079912;28;20100;-71
2021/11/02 01:30:17;;;;;;;23.38;15.55;;;8.90;99.90;;;;;;2088341;28;20534;-71
2021/11/02 01:31:17;;;;;;;22.63;15.32;;;8.90;99.90;;;;;;2087401;28;20112;-71
2021/11/02 01:32:18;;;;;;;20.83;14.50;;;8.90;99.90;;;;;;2080059;28;20041;-72
2021/11/02 01:33:23;;;;;;;21.67;13.82;;;8.90;99.90;;;;;;2080524;28;20030;-73
2021/11/02 01:34:27;;;;;;;19.30;13.13;;;8.90;99.90;;;;;;2080293;28;20493;-71
2021/11/02 01:35:30;;;;;;;19.27;13.00;;;8.90;99.90;;;;;;2088090;28;20025;-71
2021/11/02 01:36:35;;;;;;;19.85;13.02;;;8.90;99.90;;;;;;2080451;28;20036;-71
2021/11/02 01:37:39;;;;;;;19.13;12.43;;;8.90;99.90;;;;;;2088203;28;20025;-72
2021/11/02 01:38:40;;;;;;;19.88;13.10;;;8.90;99.90;;;;;;2088734;28;20090;-72
2021/11/02 01:39:45;;;;;;;20.20;13.57;;;8.90;99.90;;;;;;2087529;28;20575;-71
2021/11/02 01:40:47;;;;;;;19.48;12.35;;;8.90;99.90;;;;;;2071818;28;20472;-72
2021/11/02 01:41:50;;;;;;;18.95;12.27;;;8.80;99.90;;;;;;2071577;28;20032;-72
2021/11/02 01:42:52;;;;;;;18.27;12.88;;;8.90;99.90;;;;;;2072443;28;20033;-72
2021/11/02 01:43:57;;;;;;;17.70;12.43;;;8.80;99.90;;;;;;2080036;28;20026;-72
2021/11/02 01:44:59;;;;;;;19.23;12.07;;;8.80;99.90;;;;;;2079762;28;20052;-72
2021/11/02 01:46:02;;;;;;;18.00;11.65;;;8.80;99.90;;;;;;2071831;28;20626;-72
2021/11/02 01:47:08;;;;;;;16.67;11.88;;;8.90;99.90;;;;;;2073239;28;20022;-72
2021/11/02 01:48:17;;;;;;;16.98;11.90;;;8.80;99.90;;;;;;2080297;28;20480;-72
2021/11/02 01:49:19;;;;;;;16.90;11.50;;;8.80;99.90;;;;;;2080145;28;20030;-71
2021/11/02 01:50:20;;;;;;;15.60;10.98;;;8.80;99.90;;;;;;2088184;28;20030;-72
2021/11/02 01:51:24;;;;;;;16.45;11.20;;;8.80;99.90;;;;;;2087714;28;20025;-71
2021/11/02 01:52:25;;;;;;;16.33;10.70;;;8.90;99.90;;;;;;2080231;28;20033;-71
2021/11/02 01:53:26;;;;;;;15.52;10.45;;;8.90;99.90;;;;;;2079671;28;20056;-71
2021/11/02 01:54:34;;;;;;;16.17;10.55;;;8.80;99.90;;;;;;2080527;28;20072;-72
2021/11/02 01:55:34;;;;;;;16.10;10.32;;;8.80;99.90;;;;;;2071494;28;20032;-72
2021/11/02 01:56:36;;;;;;;14.63;10.23;;;8.80;99.90;;;;;;2071657;28;20038;-72
2021/11/02 01:57:40;;;;;;;16.98;10.48;;;8.80;99.90;;;;;;2079994;28;20460;-72
2021/11/02 01:58:44;;;;;;;16.20;10.73;;;8.80;99.90;;;;;;2087923;28;20033;-72
2021/11/02 01:59:45;;;;;;;15.82;9.95;;;8.80;99.90;;;;;;2079583;28;20124;-72
2021/11/02 02:00:59;;;;;;;18.60;10.88;;;8.80;99.90;;;;;;2080777;28;20033;-72
2021/11/02 02:02:06;;;;;;;15.70;11.20;;;8.80;99.90;;;;;;2080743;28;20067;-72
2021/11/02 02:03:34;;;;;;;15.48;10.48;;;8.80;99.90;;;;;;2081575;28;20028;-72
2021/11/02 02:04:50;;;;;;;17.25;11.02;;;8.80;99.90;;;;;;2087958;28;20044;-72
2021/11/02 02:06:14;;;;;;;19.33;11.40;;;8.80;99.90;;;;;;2082138;28;20118;-72
2021/11/02 02:07:24;;;;;;;17.73;10.77;;;8.80;99.90;;;;;;2082483;28;20022;-72
2021/11/02 02:08:53;;;;;;;17.52;11.10;;;8.80;99.90;;;;;;2088002;28;20028;-72
2021/11/02 02:10:22;;;;;;;16.05;10.60;;;8.80;99.90;;;;;;2083615;28;20116;-73
2021/11/02 02:11:43;;;;;;;15.55;11.20;;;8.80;99.90;;;;;;2079848;28;20029;-74
2021/11/02 02:13:17;;;;;;;17.70;11.02;;;8.80;99.90;;;;;;2083842;28;20114;-71
2021/11/02 02:14:20;;;;;;;17.10;11.38;;;8.80;99.90;;;;;;2088129;28;20045;-74
2021/11/02 02:15:43;;;;;;;17.85;12.05;;;8.80;99.90;;;;;;2088790;28;20503;-72
2021/11/02 02:16:50;;;;;;;17.67;11.75;;;8.80;99.90;;;;;;2088785;28;20071;-73
2021/11/02 02:18:24;;;;;;;16.73;11.18;;;8.80;99.90;;;;;;2081531;28;20116;-73
2021/11/02 02:19:46;;;;;;;17.70;11.30;;;8.80;99.90;;;;;;2081394;28;20041;-72
2021/11/02 02:21:09;;;;;;;17.20;11.20;;;8.80;99.90;;;;;;2090428;28;20029;-73
2021/11/02 02:22:48;;;;;;;16.55;10.85;;;8.70;99.90;;;;;;2088881;28;20119;-69
2021/11/02 02:24:10;;;;;;;16.77;11.10;;;8.70;99.90;;;;;;2084568;28;20067;-72
2021/11/02 02:25:34;;;;;;;18.25;11.30;;;8.70;99.90;;;;;;2082365;28;20057;-73
2021/11/02 02:26:57;;;;;;;17.30;10.75;;;8.70;99.90;;;;;;2084286;28;20508;-72
2021/11/02 02:28:10;;;;;;;16.02;11.00;;;8.70;99.90;;;;;;2081069;28;20041;-72
2021/11/02 02:29:13;;;;;;;16.95;11.10;;;8.70;99.90;;;;;;2072657;28;20073;-73
2021/11/02 02:30:17;;;;;;;18.00;11.88;;;8.70;99.90;;;;;;2072335;28;20482;-72
2021/11/02 02:31:20;;;;;;;18.80;11.10;;;8.70;99.90;;;;;;2088007;28;20029;-73
2021/11/02 02:32:24;;;;;;;15.65;10.95;;;8.70;99.90;;;;;;2080110;28;20382;-73
2021/11/02 02:33:29;;;;;;;16.77;11.10;;;8.70;99.90;;;;;;2080500;28;20038;-74
2021/11/02 02:34:31;;;;;;;18.10;11.20;;;8.70;99.90;;;;;;2080523;28;20698;-73
2021/11/02 02:35:34;;;;;;;17.10;10.85;;;8.60;99.90;;;;;;2088399;28;20037;-73
2021/11/02 02:36:36;;;;;;;14.38;10.20;;;8.70;99.90;;;;;;2088270;28;20134;-73
2021/11/02 02:37:43;;;;;;;13.55;10.20;;;8.70;99.90;;;;;;2080726;28;20116;-73
2021/11/02 02:38:46;;;;;;;13.77;10.07;;;8.60;99.90;;;;;;2080634;28;20112;-73
2021/11/02 02:39:48;;;;;;;15.32;10.35;;;8.60;99.90;;;;;;2080098;28;20053;-74
2021/11/02 02:40:54;;;;;;;14.68;10.13;;;8.70;99.90;;;;;;2080502;28;20045;-73
2021/11/02 02:42:00;;;;;;;15.98;10.05;;;8.60;99.90;;;;;;2080362;28;20033;-72
2021/11/02 02:43:01;;;;;;;13.48;9.82;;;8.60;99.90;;;;;;2088278;28;20071;-73
2021/11/02 02:44:03;;;;;;;14.13;9.88;;;8.70;99.90;;;;;;2090324;28;20071;-73
2021/11/02 02:45:08;;;;;;;13.30;9.65;;;8.70;99.90;;;;;;2089803;28;20500;-73
2021/11/02 02:46:11;;;;;;;13.75;10.10;;;8.70;99.90;;;;;;2081984;28;20029;-73
2021/11/02 02:47:14;;;;;;;14.13;10.18;;;8.70;99.90;;;;;;2081807;28;20544;-73
2021/11/02 02:48:19;;;;;;;14.93;10.48;;;8.60;99.90;;;;;;2081835;28;20067;-75
2021/11/02 02:49:21;;;;;;;15.45;10.05;;;8.70;99.90;;;;;;2081615;28;20116;-73
2021/11/02 02:50:25;;;;;;;13.63;9.77;;;8.70;99.90;;;;;;2089923;28;20017;-73
2021/11/02 02:51:27;;;;;;;13.50;9.60;;;8.70;99.90;;;;;;2081986;28;20409;-74
2021/11/02 02:52:29;;;;;;;13.60;9.52;;;8.70;99.90;;;;;;2073447;28;20037;-73
2021/11/02 02:53:31;;;;;;;15.80;10.30;;;8.70;99.90;;;;;;2073748;28;20041;-73
2021/11/02 02:54:32;;;;;;;15.35;10.00;;;8.70;99.90;;;;;;2081550;28;20029;-73
2021/11/02 02:55:37;;;;;;;13.35;9.20;;;8.70;99.90;;;;;;2089763;28;20025;-73
2021/11/02 02:56:42;;;;;;;13.32;8.93;;;8.60;99.90;;;;;;2081510;28;20033;-73
2021/11/02 02:57:44;;;;;;;12.20;8.80;;;8.60;99.90;;;;;;2082226;28;20045;-73
2021/11/02 02:58:53;;;;;;;11.40;8.15;;;8.60;99.90;;;;;;2089757;28;20510;-73
2021/11/02 02:59:54;;;;;;;12.48;8.75;;;8.60;99.90;;;;;;2088881;28;20032;-74
2021/11/02 03:00:55;;;;;;;10.82;8.20;;;8.60;99.90;;;;;;2081196;28;20065;-73
2021/11/02 03:01:56;;;;;;;11.80;8.13;;;8.60;99.90;;;;;;2081033;28;20080;-73
2021/11/02 03:03:01;;;;;;;10.65;7.88;;;8.70;99.90;;;;;;2081702;28;20590;-74
2021/11/02 03:04:06;;;;;;;12.10;8.27;;;8.60;99.90;;;;;;2081701;28;20444;-74
2021/11/02 03:05:08;;;;;;;14.40;8.32;;;8.70;99.90;;;;;;2089594;28;20032;-74
2021/11/02 03:06:12;;;;;;;13.10;8.50;;;8.60;99.90;;;;;;2089528;28;20033;-74
2021/11/02 03:07:16;;;;;;;11.75;8.32;;;8.60;99.90;;;;;;2073474;28;20041;-73
2021/11/02 03:08:17;;;;;;;12.40;8.20;;;8.60;99.90;;;;;;2073761;28;20477;-73
2021/11/02 03:09:17;;;;;;;12.40;8.20;;;8.60;99.90;;;;;;2080654;28;20029;-73
2021/11/02 03:10:18;;;;;;;10.10;7.70;;;8.60;99.90;;;;;;2089753;28;20400;-73
2021/11/02 03:11:20;;;;;;;13.48;7.78;;;8.60;99.90;;;;;;2081132;28;20021;-74
2021/11/02 03:12:26;;;;;;;11.23;7.82;;;8.50;99.90;;;;;;2081411;28;20044;-73
2021/11/02 03:13:31;;;;;;;11.13;7.47;;;8.50;99.90;;;;;;2081936;28;20038;-74
2021/11/02 03:16:09;;;;;;;10.95;6.97;;;8.50;99.90;;;;;;2089240;28;20041;-72
2021/11/02 03:17:13;;;;;;;10.60;6.75;;;8.50;99.90;;;;;;2097305;28;20038;-71
2021/11/02 03:20:27;;;;;;;9.43;6.22;;;8.50;99.90;;;;;;2083169;28;20033;-72
2021/11/02 03:51:48;;;;;;;4.88;3.35;;;8.40;99.90;;;;;;2088624;28;20036;-71
2021/11/02 03:55:37;;;;;;;4.25;3.15;;;8.40;99.90;;;;;;2088945;28;20029;-72
2021/11/02 03:57:01;;;;;;;6.47;3.50;;;8.40;99.90;;;;;;2089161;28;20108;-71
2021/11/02 03:58:16;;;;;;;4.07;3.30;;;8.50;99.90;;;;;;2089051;28;20071;-71
2021/11/02 04:26:59;;;;;;;4.78;3.42;;;8.50;99.90;;;;;;2088847;28;20025;-70
2021/11/02 04:30:30;;;;;;;5.70;4.18;;;8.50;99.90;;;;;;2088463;28;20689;-72
2021/11/02 04:33:17;;;;;;;7.70;3.83;;;8.40;99.90;;;;;;2082905;28;20405;-71
2021/11/02 04:46:29;;;;;;;4.65;4.10;;;8.40;99.90;;;;;;2088521;28;20527;-72
2021/11/02 05:07:26;;;;;;;5.47;4.20;;;8.40;99.90;;;;;;2088487;28;20568;-72
2021/11/02 05:08:58;;;;;;;6.38;4.07;;;8.40;99.90;;;;;;2088766;28;20294;-72
2021/11/02 05:12:12;;;;;;;5.18;4.07;;;8.40;99.90;;;;;;2088417;28;20040;-73
2021/11/02 05:13:31;;;;;;;5.18;3.90;;;8.40;99.90;;;;;;2088028;28;20049;-71
2021/11/02 05:48:35;;;;;;;5.63;4.28;;;8.40;99.90;;;;;;2088194;28;20508;-71
2021/11/02 05:49:50;;;;;;;6.05;4.30;;;8.40;99.90;;;;;;2087586;28;20046;-71
2021/11/02 05:51:21;;;;;;;6.68;5.00;;;8.40;99.90;;;;;;2082308;28;20060;-71
2021/11/02 05:55:19;;;;;;;7.57;5.80;;;8.40;99.90;;;;;;2088234;28;20048;-71
2021/11/02 05:56:35;;;;;;;7.47;5.60;;;8.40;99.90;;;;;;2087978;28;20063;-71
2021/11/02 06:00:04;;;;;;;8.32;5.90;;;8.40;99.90;;;;;;2079699;28;20120;-71
2021/11/02 06:02:38;;;;;;;9.35;5.90;;;8.40;99.90;;;;;;2088864;28;20040;-72
2021/11/02 06:04:12;;;;;;;7.07;5.47;;;8.40;99.90;;;;;;2088573;28;20048;-72
2021/11/02 06:23:20;;;;;;;10.38;7.55;;;8.40;99.90;;;;;;2088255;28;20025;-72
2021/11/02 06:28:07;;;;;;;9.65;6.80;;;8.60;99.90;;;;;;2090552;28;20491;-71
2021/11/02 06:29:13;;;;;;;11.10;6.32;;;8.60;99.90;;;;;;2090059;28;20028;-71
2021/11/02 06:30:17;;;;;;;8.45;6.15;;;8.70;99.90;;;;;;2091122;28;20075;-70
2021/11/02 06:32:32;;;;;;;7.90;5.95;;;8.60;99.90;;;;;;2090398;28;20029;-71
2021/11/02 06:33:44;;;;;;;7.57;6.00;;;8.60;99.90;;;;;;2090376;28;20048;-71
2021/11/02 06:36:20;;;;;;;6.88;5.70;;;8.60;99.90;;;;;;2090567;28;20127;-72
2021/11/02 06:37:46;;;;;;;7.07;5.55;;;8.60;99.90;;;;;;2091328;28;20104;-70
2021/11/02 06:42:42;;;;;;;9.88;6.68;;;8.60;99.90;;;;;;2090789;28;20032;-74
2021/11/02 06:45:51;;;;;;;8.68;7.15;;;8.60;99.90;;;;;;2097666;28;20028;-71
2021/11/02 06:48:33;;;;;;;11.07;7.95;;;8.60;99.90;;;;;;2090088;28;20025;-71
2021/11/02 06:51:18;;;;;;;8.73;7.20;;;8.50;99.90;;;;;;2090162;28;20025;-70
2021/11/02 06:56:57;;;;;;;8.98;7.20;;;8.60;99.90;;;;;;2090475;28;20028;-72
2021/11/02 06:58:21;;;;;;;9.45;7.43;;;8.60;99.90;;;;;;2090591;28;20100;-70
2021/11/02 07:16:42;;;;;;;8.18;6.25;;;8.90;99.90;;;;;;2090190;28;20017;-71
2021/11/02 07:17:57;;;;;;;8.55;7.50;;;8.90;99.90;;;;;;2090104;28;20087;-72
2021/11/02 07:19:11;;;;;;;9.15;7.25;;;8.90;99.90;;;;;;2090725;28;20029;-73
2021/11/02 07:20:58;;;;;;;8.50;6.25;;;8.90;99.90;;;;;;2091917;28;20029;-71
2021/11/02 07:28:52;;;;;;;8.90;6.65;;;9.00;99.90;;;;;;2090021;28;20032;-68
2021/11/02 08:47:22;;;;;;;11.23;8.10;;;10.50;99.90;;;;;;2090100;28;20652;-72
2021/11/02 08:48:29;;;;;;;8.95;7.40;;;10.50;99.90;;;;;;2082695;28;20029;-71
2021/11/02 08:49:30;;;;;;;9.93;7.55;;;10.50;99.90;;;;;;2082588;28;20026;-72
2021/11/02 08:50:41;;;;;;;9.80;7.80;;;10.60;99.90;;;;;;2088535;28;20033;-71
2021/11/02 08:51:45;;;;;;;9.02;7.50;;;10.60;99.90;;;;;;2086286;28;20037;-70
2021/11/02 08:52:52;;;;;;;9.93;7.93;;;10.60;99.90;;;;;;2089322;28;20033;-72
2021/11/02 08:54:01;;;;;;;8.77;7.07;;;10.70;99.90;;;;;;2074171;28;20026;-72
2021/11/02 08:55:10;;;;;;;9.93;7.47;;;10.70;99.90;;;;;;2081734;28;20037;-72
2021/11/02 08:56:15;;;;;;;10.35;7.57;;;10.80;99.90;;;;;;2073745;28;20030;-72
2021/11/02 08:57:21;;;;;;;8.00;7.13;;;10.80;99.90;;;;;;2076187;28;20022;-71
2021/11/02 08:58:28;;;;;;;10.18;8.27;;;10.80;99.90;;;;;;2082189;28;20100;-72
2021/11/02 08:59:33;;;;;;;9.23;7.43;;;10.80;99.90;;;;;;2065547;28;20030;-71
2021/11/02 09:00:41;;;;;;;8.88;7.65;;;10.80;99.90;;;;;;2067335;28;20548;-72
2021/11/02 09:01:42;;;;;;;9.60;7.28;;;10.80;99.90;;;;;;2082099;28;20421;-73
2021/11/02 09:02:53;;;;;;;8.98;7.45;;;10.80;99.90;;;;;;2081919;28;20464;-73
2021/11/02 09:04:02;;;;;;;9.10;7.85;;;10.80;99.90;;;;;;2082115;28;20025;-74
2021/11/02 09:05:14;;;;;;;8.63;7.38;;;10.80;99.90;;;;;;2082063;28;20052;-72
2021/11/02 09:06:19;;;;;;;9.35;7.93;;;10.80;99.90;;;;;;2075474;28;20480;-71
2021/11/02 09:07:23;;;;;;;10.20;7.70;;;10.80;99.90;;;;;;2074359;28;20018;-70
2021/11/02 09:08:35;;;;;;;8.98;7.53;;;10.80;99.90;;;;;;2066191;28;20031;-72
2021/11/02 09:09:40;;;;;;;10.63;8.50;;;10.90;99.90;;;;;;2076343;28;20477;-73
2021/11/02 09:10:46;;;;;;;10.80;8.50;;;10.80;99.90;;;;;;2081082;28;20025;-71
2021/11/02 09:11:48;;;;;;;12.02;9.85;;;10.90;99.90;;;;;;2080526;28;20397;-71
2021/11/02 09:12:56;;;;;;;9.80;8.43;;;10.90;99.90;;;;;;2081251;28;20536;-71
2021/11/02 09:13:58;;;;;;;11.63;9.05;;;10.90;99.90;;;;;;2081469;28;20045;-72
2021/11/02 09:15:06;;;;;;;11.27;8.90;;;10.90;99.90;;;;;;2080043;28;20083;-72
2021/11/02 09:16:08;;;;;;;8.95;7.88;;;10.90;99.90;;;;;;2074091;28;20033;-71
2021/11/02 09:17:12;;;;;;;9.65;8.30;;;10.90;99.90;;;;;;2081634;28;20090;-72
2021/11/02 09:18:22;;;;;;;9.63;7.63;;;11.00;99.90;;;;;;2084204;28;20041;-71
2021/11/02 09:19:27;;;;;;;9.30;7.03;;;11.00;99.90;;;;;;2089338;28;20080;-72
2021/11/02 09:20:29;;;;;;;9.48;7.75;;;11.00;99.90;;;;;;2089246;28;20040;-71
2021/11/02 09:21:39;;;;;;;9.05;7.47;;;11.10;99.90;;;;;;2088999;28;20125;-72
2021/11/02 09:22:41;;;;;;;8.93;7.72;;;11.10;99.90;;;;;;2081012;28;20033;-73
2021/11/02 09:23:43;;;;;;;9.50;7.55;;;11.10;99.90;;;;;;2073066;28;20485;-71
2021/11/02 09:24:45;;;;;;;9.75;7.80;;;11.20;99.90;;;;;;2089141;28;20035;-71
2021/11/02 09:25:48;;;;;;;9.30;7.10;;;11.10;99.90;;;;;;2089890;28;20815;-71
2021/11/02 09:26:49;;;;;;;10.35;7.80;;;11.20;99.90;;;;;;2090991;28;20072;-71
2021/11/02 09:27:51;;;;;;;10.82;7.22;;;11.20;99.90;;;;;;2089611;28;20025;-71
2021/11/02 09:28:53;;;;;;;9.98;7.53;;;11.20;99.90;;;;;;2088881;28;20508;-71
2021/11/02 09:29:58;;;;;;;9.43;7.38;;;11.20;99.90;;;;;;2090377;28;20021;-70
2021/11/02 09:31:06;;;;;;;7.60;6.63;;;11.30;99.90;;;;;;2090438;28;20147;-73
2021/11/02 09:32:08;;;;;;;10.02;7.25;;;11.30;99.90;;;;;;2089876;28;20024;-71
2021/11/02 09:33:09;;;;;;;10.35;8.10;;;11.30;99.90;;;;;;2089907;28;20037;-71
2021/11/02 09:34:11;;;;;;;8.35;7.30;;;11.30;99.90;;;;;;2088750;28;20029;-71
2021/11/02 09:35:16;;;;;;;11.00;8.00;;;11.30;99.90;;;;;;2089094;28;20072;-72
2021/11/02 09:36:24;;;;;;;9.95;7.90;;;11.30;99.90;;;;;;2089564;28;20052;-71
2021/11/02 09:37:35;;;;;;;10.18;8.20;;;11.30;99.90;;;;;;2089080;28;20051;-71
2021/11/02 09:38:49;;;;;;;9.50;8.15;;;11.30;99.90;;;;;;2088987;28;20527;-71
2021/11/02 09:39:51;;;;;;;11.15;8.45;;;11.30;99.90;;;;;;2088295;28;20115;-71
2021/11/02 09:40:58;;;;;;;9.30;8.00;;;11.40;99.90;;;;;;2088233;28;20033;-71
2021/11/02 09:42:15;;;;;;;12.95;9.00;;;11.40;99.90;;;;;;2088572;28;20128;-71
2021/11/02 09:43:38;;;;;;;14.52;9.25;;;11.40;99.90;;;;;;2088570;28;20025;-73
2021/11/02 09:45:10;;;;;;;12.68;8.95;;;11.40;99.90;;;;;;2088436;28;20021;-73
2021/11/02 09:46:45;;;;;;;10.60;8.35;;;11.50;99.90;;;;;;2088528;28;20033;-73
2021/11/02 09:48:24;;;;;;;11.02;8.27;;;11.50;99.90;;;;;;2088979;28;20086;-72
2021/11/02 09:49:48;;;;;;;9.75;7.82;;;11.50;99.90;;;;;;2089954;28;20116;-73
2021/11/02 09:51:26;;;;;;;10.70;8.15;;;11.60;99.90;;;;;;2089989;28;20476;-73
2021/11/02 09:52:37;;;;;;;11.85;8.40;;;11.70;99.90;;;;;;2091157;28;20055;-73
2021/11/02 09:53:53;;;;;;;;;;;11.70;99.90;;;;;;2089387;28;20029;-72
2021/11/02 09:55:16;;;;;;;11.35;9.18;;;11.70;99.90;;;;;;2088804;28;20368;-70
2021/11/02 09:56:30;;;;;;;12.85;9.60;;;11.70;99.90;;;;;;2088289;28;20040;-70
2021/11/02 09:57:59;;;;;;;11.77;8.95;;;11.80;99.90;;;;;;2088709;28;20029;-68
2021/11/02 09:59:24;;;;;;;17.58;10.82;;;11.70;99.90;;;;;;2089367;28;20044;-71
2021/11/02 10:00:48;;;;;;;14.95;10.15;;;11.70;99.90;;;;;;2088335;28;20029;-73
2021/11/02 10:02:15;;;;;;;13.98;9.70;;;11.70;99.90;;;;;;2088268;28;20045;-73
2021/11/02 10:03:33;;;;;;;15.15;10.10;;;11.70;99.90;;;;;;2087334;28;20025;-73
2021/11/02 10:04:51;;;;;;;13.02;10.05;;;11.70;99.90;;;;;;2088082;28;20033;-74
2021/11/02 10:06:34;;;;;;;12.95;9.80;;;11.80;99.90;;;;;;2083562;28;20023;-74
2021/11/02 10:08:19;;;;;;;12.90;9.25;;;11.80;99.90;;;;;;2082407;28;20032;-74
2021/11/02 10:09:37;;;;;;;12.35;8.75;;;11.80;99.90;;;;;;2087843;28;20020;-73
2021/11/02 10:11:03;;;;;;;10.98;8.63;;;11.80;99.90;;;;;;2094624;28;20448;-73
2021/11/02 10:12:13;;;;;;;10.07;8.60;;;11.90;99.90;;;;;;2088747;28;20029;-71
2021/11/02 10:13:15;;;;;;;11.48;8.35;;;11.90;99.90;;;;;;2088684;28;20109;-72
2021/11/02 10:14:37;;;;;;;11.20;8.07;;;11.90;99.90;;;;;;2087786;28;20163;-72
2021/11/02 10:15:59;;;;;;;10.63;8.52;;;11.90;99.90;;;;;;2087818;28;20033;-73
2021/11/02 10:17:26;;;;;;;;;;;11.90;99.90;;;;;;2088839;28;20025;-71
2021/11/02 10:18:37;;;;;;;11.57;8.70;;;11.90;99.90;;;;;;2086148;28;19913;-72
2021/11/02 10:19:58;;;;;;;12.60;9.00;;;11.90;99.90;;;;;;2088085;28;20358;-71
2021/11/02 10:21:44;;;;;;;12.02;8.88;;;11.90;99.90;;;;;;2088680;28;20032;-70
2021/11/02 10:22:54;;;;;;;11.80;8.20;;;11.90;99.90;;;;;;2088631;28;20044;-71
2021/11/02 10:24:25;;;;;;;10.23;8.20;;;11.90;99.90;;;;;;2088828;28;20040;-72
2021/11/02 10:25:44;;;;;;;10.98;7.97;;;12.00;99.90;;;;;;2088453;28;20114;-72
2021/11/02 10:27:16;;;;;;;9.10;7.20;;;12.00;99.90;;;;;;2088698;28;20033;-71
2021/11/02 10:28:38;;;;;;;9.50;8.02;;;12.10;99.90;;;;;;2088748;28;20140;-73
2021/11/02 10:30:02;;;;;;;10.30;7.82;;;12.10;99.90;;;;;;2088006;28;20040;-73
2021/11/02 10:31:21;;;;;;;11.70;7.22;;;12.10;99.90;;;;;;2087569;28;20031;-72
2021/11/02 10:32:28;;;;;;;9.38;7.35;;;12.20;99.90;;;;;;2087707;28;20025;-72
2021/11/02 10:33:37;;;;;;;9.52;7.15;;;12.20;99.90;;;;;;2088112;28;20487;-72
2021/11/02 10:34:41;;;;;;;11.23;7.18;;;12.30;99.90;;;;;;2088065;28;20017;-72